Aérodrome :
LOGIN :

S'inscrire | Disclaimer

   EN    FR    IT 

 










Légende :    VFR   VFR Marginal   IFR   IFR Intensif   IFR Très Intensif
Visi : 
Plafond : 
>= 8 km
>= 3000ft
5 à 8 km
1000 à 3000 ft
1500m à 5 km
500 à 1000 ft
800 à 1500m
200 à 500 ft
< 800m
< 200 ft
Symboles :   Orages  Brouillard  Fortes neiges  Fortes précipitations  Vent > 20 kt
SIGMETs :   Divers  Orages  Givrage  Turbulence  Onde Orograph.  Cendres Volcan.






- Altitude de l'aérodrome : 100 ft


EBDT - Schaffen

DERNIER METAR :
  • 091625Z AUTO 06004KT 9999 NCD 32/17 Q1014 BLU

METARs EXPIRÉS :
  • 091555Z AUTO 02007KT 9999 NCD 31/17 Q1015 BLU
  • 091525Z AUTO 03006KT 9999 NCD 31/19 Q1015 BLU
  • 091455Z AUTO 02006KT 9999 NCD 31/19 Q1015 BLU
  • 091425Z AUTO 06003KT 9999 SCT210/// 31/18 Q1015 BLU
  • 091355Z AUTO 10003KT 9999 NCD 30/19 Q1016 BLU
  • 091325Z AUTO 14004KT 9999 FEW200/// 28/19 Q1016 BLU

Prévision TAF périmée.



MET'MAP, la Météo Aéronautique d'un coup d'oeil ! - Copyright ORBIFLY Décembre 2007 - Disclaimer

ORBIFLY MET'MAP TEAM :

Programmation & Développement : Alexandra Zaïnal
Sur une idée originale de : Baudouin d'Aumeries
Assistance à la programmation : Marc-Olivier Méhu
Soutien technique & logistique : Manuel Goepfert

Contact : metmap@orbifly.com




SOURCES & CREDITS :

   NOAA